Time;durP1;ratioP1;P1;durP2;ratioP2;P2;SDS_P1;SDS_P2;PMS_P1;PMS_P2;Temp;Humidity;BMP_temperature;BMP_pressure;BME280_temperature;BME280_humidity;BME280_pressure;Samples;Min_cycle;Max_cycle;Signal;HPM_P1;HPM_P2
2023/02/05 00:01:09;;;;;;;5.38;1.40;;;;;;;;;;5073555;28;20032;-65
2023/02/05 00:03:35;;;;;;;5.63;1.50;;;;;;;;;;5080042;28;20099;-65
2023/02/05 00:06:01;;;;;;;6.07;1.50;;;;;;;;;;5084276;28;20490;-67
2023/02/05 00:08:26;;;;;;;5.00;1.67;;;;;;;;;;5083180;28;20035;-65
2023/02/05 00:10:51;;;;;;;5.10;1.35;;;;;;;;;;5082545;28;20032;-65
2023/02/05 00:13:17;;;;;;;6.78;1.55;;;;;;;;;;5082673;28;20402;-65
2023/02/05 00:15:42;;;;;;;7.53;1.55;;;;;;;;;;5084144;28;20032;-67
2023/02/05 00:18:07;;;;;;;3.90;1.20;;;;;;;;;;5083177;28;20024;-65
2023/02/05 00:20:32;;;;;;;4.50;1.20;;;;;;;;;;5078354;28;20062;-67
2023/02/05 00:22:58;;;;;;;5.37;1.33;;;;;;;;;;5075230;28;20031;-65
2023/02/05 00:25:23;;;;;;;4.88;1.23;;;;;;;;;;5085736;28;20396;-73
2023/02/05 00:27:48;;;;;;;4.35;1.20;;;;;;;;;;5082561;28;20123;-64
2023/02/05 00:30:13;;;;;;;5.47;1.25;;;;;;;;;;5087900;28;20020;-67
2023/02/05 00:32:38;;;;;;;5.80;1.43;;;;;;;;;;5088011;28;20024;-66
2023/02/05 00:35:04;;;;;;;5.53;1.30;;;;;;;;;;5087320;28;20069;-68
2023/02/05 00:37:29;;;;;;;4.32;1.08;;;;;;;;;;5084204;28;20102;-65
2023/02/05 00:39:54;;;;;;;5.72;1.38;;;;;;;;;;5087576;28;20078;-67
2023/02/05 00:42:19;;;;;;;4.82;1.20;;;;;;;;;;5089921;28;20024;-65
2023/02/05 00:44:44;;;;;;;4.82;1.20;;;;;;;;;;5095142;28;20127;-67
2023/02/05 00:47:09;;;;;;;3.53;1.40;;;;;;;;;;5087274;28;20123;-65
2023/02/05 00:49:35;;;;;;;6.75;1.73;;;;;;;;;;5083122;28;20547;-67
2023/02/05 00:52:00;;;;;;;4.32;1.20;;;;;;;;;;5090349;28;20024;-65
2023/02/05 00:54:25;;;;;;;4.43;1.50;;;;;;;;;;5103882;28;20030;-67
2023/02/05 00:56:50;;;;;;;4.63;1.20;;;;;;;;;;5104707;28;20024;-66
2023/02/05 00:59:15;;;;;;;5.22;1.40;;;;;;;;;;5102515;28;20051;-67
2023/02/05 01:01:40;;;;;;;4.70;1.35;;;;;;;;;;5091578;28;20037;-69
2023/02/05 01:04:05;;;;;;;4.93;1.40;;;;;;;;;;5096782;28;20199;-71
2023/02/05 01:06:30;;;;;;;5.67;1.47;;;;;;;;;;5104132;28;20043;-66
2023/02/05 01:08:56;;;;;;;4.85;1.35;;;;;;;;;;5089062;28;20073;-68
2023/02/05 01:11:21;;;;;;;5.18;1.40;;;;;;;;;;5080308;28;20044;-66
2023/02/05 01:13:46;;;;;;;5.53;1.52;;;;;;;;;;5090771;28;20016;-65
2023/02/05 01:16:11;;;;;;;5.47;1.30;;;;;;;;;;5082506;28;20081;-65
2023/02/05 01:18:36;;;;;;;6.20;1.30;;;;;;;;;;5077373;28;20021;-65
2023/02/05 01:21:02;;;;;;;5.27;1.40;;;;;;;;;;5084843;28;20024;-65
2023/02/05 01:23:27;;;;;;;4.13;1.20;;;;;;;;;;5083141;28;20319;-65
2023/02/05 01:25:52;;;;;;;6.97;1.85;;;;;;;;;;5093490;28;20086;-66
2023/02/05 01:28:17;;;;;;;5.77;1.60;;;;;;;;;;5092925;28;20013;-66
2023/02/05 01:30:46;;;;;;;4.05;1.10;;;;;;;;;;5088773;28;20026;-69
2023/02/05 01:33:11;;;;;;;7.22;1.50;;;;;;;;;;5087748;28;20028;-65
2023/02/05 01:35:36;;;;;;;5.72;1.40;;;;;;;;;;5087731;28;20253;-68
2023/02/05 01:38:01;;;;;;;5.37;1.20;;;;;;;;;;5092652;28;20048;-64
2023/02/05 01:40:27;;;;;;;5.53;1.23;;;;;;;;;;5084994;28;20081;-67
2023/02/05 01:42:52;;;;;;;5.00;1.50;;;;;;;;;;5090665;28;20481;-64
2023/02/05 01:45:37;;;;;;;5.32;1.38;;;;;;;;;;5090509;28;20644;-64
2023/02/05 01:48:03;;;;;;;5.03;1.40;;;;;;;;;;5084383;28;20037;-65
2023/02/05 01:50:30;;;;;;;6.70;1.35;;;;;;;;;;5089016;28;20025;-66
2023/02/05 01:52:56;;;;;;;5.72;1.35;;;;;;;;;;5087022;28;20119;-64
2023/02/05 01:55:21;;;;;;;6.70;1.50;;;;;;;;;;5080741;28;20020;-65
2023/02/05 01:57:48;;;;;;;6.78;1.60;;;;;;;;;;5083691;28;20070;-66
2023/02/05 02:00:13;;;;;;;4.30;1.30;;;;;;;;;;5086218;28;20020;-66
2023/02/05 02:02:38;;;;;;;5.45;1.38;;;;;;;;;;5094813;28;20129;-69
2023/02/05 02:05:14;;;;;;;5.13;1.47;;;;;;;;;;5085442;28;20028;-66
2023/02/05 02:07:40;;;;;;;5.45;1.40;;;;;;;;;;5085312;28;20031;-66
2023/02/05 02:10:06;;;;;;;6.32;1.40;;;;;;;;;;5079992;28;20040;-66
2023/02/05 02:12:32;;;;;;;8.25;1.42;;;;;;;;;;5075182;28;20386;-66
2023/02/05 02:15:04;;;;;;;7.68;1.80;;;;;;;;;;5079597;28;20028;-69
2023/02/05 02:17:30;;;;;;;4.53;1.38;;;;;;;;;;5074241;28;20017;-65
2023/02/05 02:20:00;;;;;;;4.63;1.48;;;;;;;;;;5079907;28;20024;-65
2023/02/05 02:22:36;;;;;;;5.13;1.60;;;;;;;;;;5074915;28;20532;-66
2023/02/05 02:25:27;;;;;;;5.25;1.50;;;;;;;;;;5086231;28;20020;-66
2023/02/05 02:28:11;;;;;;;6.43;1.77;;;;;;;;;;5081663;28;20115;-66
2023/02/05 02:30:42;;;;;;;5.40;1.48;;;;;;;;;;5080195;28;20021;-67
2023/02/05 02:33:07;;;;;;;6.45;1.58;;;;;;;;;;5078337;28;20063;-66
2023/02/05 02:35:37;;;;;;;4.07;1.25;;;;;;;;;;5083596;28;20432;-69
2023/02/05 02:38:31;;;;;;;7.35;1.40;;;;;;;;;;5081440;28;20047;-68
2023/02/05 02:41:02;;;;;;;5.57;1.77;;;;;;;;;;5090170;28;20028;-65
2023/02/05 02:43:30;;;;;;;5.05;1.70;;;;;;;;;;5077104;28;20023;-64
2023/02/05 02:46:00;;;;;;;5.43;1.60;;;;;;;;;;5079720;28;20032;-64
2023/02/05 02:48:26;;;;;;;6.78;1.80;;;;;;;;;;5078815;28;20020;-66
2023/02/05 02:50:52;;;;;;;6.20;1.80;;;;;;;;;;5083773;28;20036;-65
2023/02/05 02:53:23;;;;;;;6.90;2.08;;;;;;;;;;5076360;28;20021;-67
2023/02/05 02:55:48;;;;;;;5.22;1.92;;;;;;;;;;5080626;28;20029;-65
2023/02/05 02:58:33;;;;;;;7.38;1.98;;;;;;;;;;5080108;28;20040;-66
2023/02/05 03:01:00;;;;;;;4.75;1.50;;;;;;;;;;5078972;28;20028;-66
2023/02/05 03:03:27;;;;;;;5.53;1.52;;;;;;;;;;5078304;28;20154;-66
2023/02/05 03:05:52;;;;;;;6.05;1.90;;;;;;;;;;5080093;28;20123;-67
2023/02/05 03:08:27;;;;;;;5.60;1.70;;;;;;;;;;5079954;28;20540;-69
2023/02/05 03:10:55;;;;;;;6.32;1.90;;;;;;;;;;5082116;28;20102;-65
2023/02/05 03:13:20;;;;;;;6.88;1.65;;;;;;;;;;5079709;28;20016;-68
2023/02/05 03:15:46;;;;;;;4.73;1.60;;;;;;;;;;5088660;28;20562;-64
2023/02/05 03:18:12;;;;;;;4.78;1.60;;;;;;;;;;5085271;28;20020;-67
2023/02/05 03:20:40;;;;;;;6.32;1.77;;;;;;;;;;5081955;28;20374;-71
2023/02/05 03:23:06;;;;;;;6.40;1.80;;;;;;;;;;5081346;28;20032;-66
2023/02/05 03:25:31;;;;;;;5.30;1.50;;;;;;;;;;5082380;28;20376;-64
2023/02/05 03:27:56;;;;;;;6.60;1.58;;;;;;;;;;5085363;28;20027;-65
2023/02/05 03:30:25;;;;;;;6.30;1.85;;;;;;;;;;5084509;28;20031;-65
2023/02/05 03:33:08;;;;;;;5.72;1.58;;;;;;;;;;5079581;28;20035;-69
2023/02/05 03:35:36;;;;;;;5.38;1.90;;;;;;;;;;5075558;28;20048;-66
2023/02/05 03:38:07;;;;;;;5.80;1.70;;;;;;;;;;5079422;28;20107;-66
2023/02/05 03:40:42;;;;;;;5.43;1.65;;;;;;;;;;5078941;28;20028;-67
2023/02/05 03:43:10;;;;;;;5.05;1.60;;;;;;;;;;5077182;28;20537;-68
2023/02/05 03:45:45;;;;;;;6.00;1.67;;;;;;;;;;5075383;28;20036;-65
2023/02/05 03:48:13;;;;;;;4.95;1.50;;;;;;;;;;5089484;28;20020;-65
2023/02/05 03:50:56;;;;;;;7.28;1.83;;;;;;;;;;5072820;28;20028;-67
2023/02/05 03:53:32;;;;;;;7.80;1.92;;;;;;;;;;5078841;28;20444;-65
2023/02/05 03:56:02;;;;;;;5.25;1.77;;;;;;;;;;5087885;28;20475;-65
2023/02/05 03:58:30;;;;;;;6.07;1.60;;;;;;;;;;5083271;28;20483;-65
2023/02/05 04:00:56;;;;;;;6.00;1.58;;;;;;;;;;5080013;28;20157;-65
2023/02/05 04:03:21;;;;;;;5.75;1.70;;;;;;;;;;5084007;28;20033;-65
2023/02/05 04:05:46;;;;;;;8.23;1.90;;;;;;;;;;5085306;28;20102;-65
2023/02/05 04:08:12;;;;;;;5.70;1.80;;;;;;;;;;5084668;28;20023;-66
2023/02/05 04:10:37;;;;;;;7.07;1.73;;;;;;;;;;5073041;28;20493;-65
2023/02/05 04:13:02;;;;;;;5.32;1.58;;;;;;;;;;5080988;28;20098;-67
2023/02/05 04:15:27;;;;;;;6.95;1.70;;;;;;;;;;5084799;28;20488;-65
2023/02/05 04:17:52;;;;;;;9.05;1.80;;;;;;;;;;5089055;28;20027;-68
2023/02/05 04:20:17;;;;;;;6.50;1.90;;;;;;;;;;5093940;28;20024;-68
2023/02/05 04:22:43;;;;;;;6.50;2.00;;;;;;;;;;5091899;28;20055;-68
2023/02/05 04:25:08;;;;;;;7.13;1.70;;;;;;;;;;5090624;28;20020;-67
2023/02/05 04:27:33;;;;;;;5.47;1.70;;;;;;;;;;5111450;28;20091;-68
2023/02/05 04:29:58;;;;;;;9.07;1.83;;;;;;;;;;5107918;28;20024;-70
2023/02/05 04:32:23;;;;;;;5.28;1.73;;;;;;;;;;5103001;28;20642;-68
2023/02/05 04:34:48;;;;;;;5.23;1.80;;;;;;;;;;5088944;28;20103;-64
2023/02/05 04:37:13;;;;;;;5.20;1.87;;;;;;;;;;5085502;28;20032;-66
2023/02/05 04:39:39;;;;;;;5.43;2.00;;;;;;;;;;5071619;28;20086;-66
2023/02/05 04:42:04;;;;;;;8.35;1.80;;;;;;;;;;5079589;28;20020;-69
2023/02/05 04:44:29;;;;;;;6.83;1.80;;;;;;;;;;5087171;28;20071;-65
2023/02/05 04:46:54;;;;;;;7.07;1.80;;;;;;;;;;5083052;28;20036;-66
2023/02/05 04:49:19;;;;;;;6.55;1.80;;;;;;;;;;5077876;28;20025;-66
2023/02/05 04:51:44;;;;;;;6.57;2.20;;;;;;;;;;5081275;28;20028;-66
2023/02/05 04:54:10;;;;;;;7.53;2.10;;;;;;;;;;5081476;28;20025;-65
2023/02/05 04:56:35;;;;;;;8.77;2.30;;;;;;;;;;5086357;28;20056;-69
2023/02/05 04:59:00;;;;;;;6.87;1.93;;;;;;;;;;5081155;28;20020;-64
2023/02/05 05:01:25;;;;;;;6.80;1.80;;;;;;;;;;5082322;28;20088;-67
2023/02/05 05:03:50;;;;;;;6.27;1.70;;;;;;;;;;5083353;28;20024;-66
2023/02/05 05:06:16;;;;;;;4.50;1.63;;;;;;;;;;5085048;28;20503;-65
2023/02/05 05:08:41;;;;;;;5.20;1.60;;;;;;;;;;5082643;28;20024;-67
2023/02/05 05:11:08;;;;;;;4.80;1.67;;;;;;;;;;5078717;28;20321;-66
2023/02/05 05:13:34;;;;;;;7.53;2.00;;;;;;;;;;5080150;28;20031;-66
2023/02/05 05:15:59;;;;;;;5.00;1.60;;;;;;;;;;5082983;28;20103;-65
2023/02/05 05:18:24;;;;;;;5.95;1.50;;;;;;;;;;5085649;28;20024;-65
2023/02/05 05:20:49;;;;;;;6.22;1.90;;;;;;;;;;5087291;28;20028;-66
2023/02/05 05:23:15;;;;;;;6.72;1.80;;;;;;;;;;5080675;28;20025;-65
2023/02/05 05:25:41;;;;;;;6.10;2.10;;;;;;;;;;5085445;28;20479;-66
2023/02/05 05:28:06;;;;;;;6.28;1.70;;;;;;;;;;5087468;28;20016;-66
2023/02/05 05:30:31;;;;;;;6.22;2.08;;;;;;;;;;5081524;28;20377;-66
2023/02/05 05:32:56;;;;;;;5.38;1.52;;;;;;;;;;5079496;28;20034;-66
2023/02/05 05:35:21;;;;;;;5.68;1.80;;;;;;;;;;5086459;28;20048;-65
2023/02/05 05:37:46;;;;;;;4.72;1.45;;;;;;;;;;5085392;28;20716;-66
2023/02/05 05:45:39;;;;;;;5.90;1.50;;;;;;;;;;5079410;28;20138;-65
2023/02/05 05:48:04;;;;;;;6.95;1.48;;;;;;;;;;5087170;28;20103;-64
2023/02/05 05:50:29;;;;;;;5.37;1.60;;;;;;;;;;5075677;28;20028;-66
2023/02/05 05:52:54;;;;;;;5.70;1.67;;;;;;;;;;5086571;28;20027;-66
2023/02/05 05:55:20;;;;;;;5.53;1.65;;;;;;;;;;5077081;28;20021;-66
2023/02/05 05:57:45;;;;;;;4.82;1.58;;;;;;;;;;5076231;28;20074;-65
2023/02/05 06:00:10;;;;;;;7.70;1.70;;;;;;;;;;5074934;28;20031;-67
2023/02/05 06:02:38;;;;;;;5.97;1.50;;;;;;;;;;5081213;28;20028;-66
2023/02/05 06:05:03;;;;;;;6.97;1.67;;;;;;;;;;5074690;28;20032;-66
2023/02/05 06:07:28;;;;;;;5.77;1.37;;;;;;;;;;5069267;28;20029;-67
2023/02/05 06:09:53;;;;;;;5.45;1.55;;;;;;;;;;5078958;28;20030;-65
2023/02/05 06:12:19;;;;;;;6.35;1.67;;;;;;;;;;5086371;28;20124;-67
2023/02/05 06:14:44;;;;;;;5.75;1.65;;;;;;;;;;5083671;28;20606;-65
2023/02/05 06:17:09;;;;;;;7.00;1.90;;;;;;;;;;5088732;28;20020;-65
2023/02/05 06:19:34;;;;;;;5.85;1.92;;;;;;;;;;5083238;28;20071;-66
2023/02/05 06:21:59;;;;;;;4.90;1.50;;;;;;;;;;5083396;28;20485;-64
2023/02/05 06:24:24;;;;;;;4.77;1.60;;;;;;;;;;5083516;28;20016;-64
2023/02/05 06:26:49;;;;;;;5.50;1.53;;;;;;;;;;5080750;28;20024;-65
2023/02/05 06:29:15;;;;;;;5.10;1.50;;;;;;;;;;5084716;28;20023;-67
2023/02/05 06:31:40;;;;;;;5.87;1.77;;;;;;;;;;5076890;28;20457;-65
2023/02/05 06:34:05;;;;;;;5.78;1.30;;;;;;;;;;5080728;28;20020;-65
2023/02/05 06:36:30;;;;;;;4.95;1.40;;;;;;;;;;5083541;28;20504;-64
2023/02/05 06:38:55;;;;;;;4.37;1.40;;;;;;;;;;5089634;28;20028;-67
2023/02/05 06:41:20;;;;;;;3.90;1.13;;;;;;;;;;5083106;28;21276;-68
2023/02/05 06:43:45;;;;;;;6.47;1.43;;;;;;;;;;5089685;28;20024;-67
2023/02/05 06:46:11;;;;;;;6.05;1.60;;;;;;;;;;5090188;28;20091;-68
2023/02/05 06:48:36;;;;;;;5.07;1.45;;;;;;;;;;5092685;28;20028;-67
2023/02/05 06:51:01;;;;;;;5.88;1.67;;;;;;;;;;5087768;28;20042;-67
2023/02/05 06:53:26;;;;;;;6.10;1.38;;;;;;;;;;5094888;28;20020;-66
2023/02/05 06:55:51;;;;;;;4.65;1.40;;;;;;;;;;5095841;28;20036;-66
2023/02/05 06:58:16;;;;;;;5.45;1.40;;;;;;;;;;5089606;28;20063;-64
2023/02/05 07:00:41;;;;;;;3.97;1.38;;;;;;;;;;5078532;28;20024;-67
2023/02/05 07:03:07;;;;;;;4.77;1.37;;;;;;;;;;5077920;28;20060;-64
2023/02/05 07:05:32;;;;;;;4.07;1.30;;;;;;;;;;5077362;28;20012;-66
2023/02/05 07:07:58;;;;;;;5.63;1.30;;;;;;;;;;5077876;28;20120;-64
2023/02/05 07:10:23;;;;;;;6.57;1.52;;;;;;;;;;5081741;28;20032;-65
2023/02/05 07:12:49;;;;;;;6.43;1.33;;;;;;;;;;5087167;28;20031;-64
2023/02/05 07:15:14;;;;;;;4.65;1.83;;;;;;;;;;5081465;28;20396;-64
2023/02/05 07:17:39;;;;;;;5.37;1.23;;;;;;;;;;5078394;28;20481;-64
2023/02/05 07:20:04;;;;;;;4.63;1.48;;;;;;;;;;5074820;28;20111;-67
2023/02/05 07:22:29;;;;;;;5.57;1.40;;;;;;;;;;5083560;28;20116;-65
2023/02/05 07:24:54;;;;;;;5.40;1.33;;;;;;;;;;5079174;28;20389;-64
2023/02/05 07:27:20;;;;;;;5.55;1.52;;;;;;;;;;5076434;28;20040;-63
2023/02/05 07:29:45;;;;;;;6.03;1.73;;;;;;;;;;5073093;28;20044;-65
2023/02/05 07:32:10;;;;;;;4.80;1.30;;;;;;;;;;5080533;28;20549;-64
2023/02/05 07:34:35;;;;;;;5.53;1.50;;;;;;;;;;5091172;28;20031;-63
2023/02/05 07:37:00;;;;;;;4.50;1.27;;;;;;;;;;5082089;28;20047;-64
2023/02/05 07:39:27;;;;;;;4.03;1.20;;;;;;;;;;5087676;28;20019;-65
2023/02/05 07:41:52;;;;;;;4.40;1.40;;;;;;;;;;5088292;28;20024;-66
2023/02/05 07:44:17;;;;;;;7.18;1.63;;;;;;;;;;5081856;28;20082;-65
2023/02/05 07:46:42;;;;;;;4.87;1.50;;;;;;;;;;5084714;28;20081;-66
2023/02/05 07:49:07;;;;;;;4.60;1.30;;;;;;;;;;5081446;28;20049;-64
2023/02/05 07:51:33;;;;;;;5.23;1.40;;;;;;;;;;5076210;28;20048;-65
2023/02/05 07:53:58;;;;;;;4.93;1.40;;;;;;;;;;5087073;28;20043;-66
2023/02/05 07:56:24;;;;;;;4.70;1.50;;;;;;;;;;5075744;28;20028;-65
2023/02/05 07:58:49;;;;;;;6.22;1.60;;;;;;;;;;5091728;28;20027;-65
2023/02/05 08:01:15;;;;;;;6.53;1.57;;;;;;;;;;5086152;28;20016;-64
2023/02/05 08:03:40;;;;;;;6.60;2.13;;;;;;;;;;5077957;28;20907;-65
2023/02/05 08:06:06;;;;;;;5.47;1.73;;;;;;;;;;5093493;28;20043;-64
2023/02/05 08:08:31;;;;;;;7.10;1.42;;;;;;;;;;5094766;28;20020;-66
2023/02/05 08:10:58;;;;;;;4.77;1.37;;;;;;;;;;5085740;28;20028;-66
2023/02/05 08:13:23;;;;;;;7.63;2.50;;;;;;;;;;5086334;28;20029;-66
2023/02/05 08:15:48;;;;;;;5.80;1.37;;;;;;;;;;5088102;28;20052;-66
2023/02/05 08:18:13;;;;;;;4.90;1.70;;;;;;;;;;5087121;28;20048;-66
2023/02/05 08:20:38;;;;;;;5.97;1.30;;;;;;;;;;5087474;28;20030;-66
2023/02/05 08:23:04;;;;;;;4.57;1.30;;;;;;;;;;5077066;28;20012;-65
2023/02/05 08:25:29;;;;;;;5.10;1.40;;;;;;;;;;5077832;28;20033;-65
2023/02/05 08:27:54;;;;;;;6.18;1.50;;;;;;;;;;5088316;28;20479;-65
2023/02/05 08:30:20;;;;;;;4.85;1.50;;;;;;;;;;5082329;28;20044;-65
2023/02/05 08:32:46;;;;;;;6.90;1.67;;;;;;;;;;5092307;28;20028;-64
2023/02/05 08:35:11;;;;;;;5.18;1.30;;;;;;;;;;5098380;28;20442;-64
2023/02/05 08:37:36;;;;;;;6.47;1.65;;;;;;;;;;5084114;28;20032;-65
2023/02/05 08:40:01;;;;;;;4.70;1.20;;;;;;;;;;5070350;28;20021;-66
2023/02/05 08:42:27;;;;;;;4.68;1.23;;;;;;;;;;5071074;28;20051;-65
2023/02/05 08:44:52;;;;;;;7.17;1.40;;;;;;;;;;5071151;28;20635;-64
2023/02/05 08:47:18;;;;;;;5.37;1.50;;;;;;;;;;5071666;28;20491;-66
2023/02/05 08:49:43;;;;;;;5.57;1.80;;;;;;;;;;5070406;28;20164;-64
2023/02/05 08:52:08;;;;;;;7.57;2.53;;;;;;;;;;5071203;28;20120;-65
2023/02/05 08:54:33;;;;;;;5.83;1.93;;;;;;;;;;5071114;28;20488;-66
2023/02/05 08:56:59;;;;;;;5.82;1.70;;;;;;;;;;5080189;28;20077;-64
2023/02/05 08:59:24;;;;;;;8.98;2.25;;;;;;;;;;5090052;28;20051;-65
2023/02/05 09:01:49;;;;;;;5.13;1.47;;;;;;;;;;5090667;28;20031;-64
2023/02/05 09:04:15;;;;;;;5.43;1.55;;;;;;;;;;5090482;28;20069;-64
2023/02/05 09:06:41;;;;;;;4.88;1.50;;;;;;;;;;5090751;28;20032;-64
2023/02/05 09:09:06;;;;;;;7.82;1.50;;;;;;;;;;5090369;28;20012;-65
2023/02/05 09:11:31;;;;;;;3.60;1.15;;;;;;;;;;5090016;28;20016;-67
2023/02/05 09:13:57;;;;;;;6.20;1.50;;;;;;;;;;5090439;28;20027;-65
2023/02/05 09:16:22;;;;;;;5.53;1.40;;;;;;;;;;5088592;28;20501;-64
2023/02/05 09:18:47;;;;;;;4.83;1.60;;;;;;;;;;5090560;28;20020;-63
2023/02/05 09:21:13;;;;;;;5.35;1.67;;;;;;;;;;5090161;28;20453;-65
2023/02/05 09:23:38;;;;;;;4.88;1.42;;;;;;;;;;5090980;28;20027;-66
2023/02/05 09:26:04;;;;;;;5.28;1.60;;;;;;;;;;5091135;28;20410;-64
2023/02/05 09:28:29;;;;;;;6.38;1.30;;;;;;;;;;5090544;28;20024;-65
2023/02/05 09:30:54;;;;;;;4.97;1.80;;;;;;;;;;5089479;28;20107;-65
2023/02/05 09:33:19;;;;;;;5.05;1.33;;;;;;;;;;5089957;28;20111;-64
2023/02/05 09:35:44;;;;;;;6.85;1.63;;;;;;;;;;5090483;28;20027;-66
2023/02/05 09:38:13;;;;;;;6.28;1.65;;;;;;;;;;5090160;28;20359;-66
2023/02/05 09:40:43;;;;;;;10.43;1.92;;;;;;;;;;5087873;28;20028;-66
2023/02/05 09:43:38;;;;;;;4.63;1.42;;;;;;;;;;5090684;28;20024;-66
2023/02/05 09:46:12;;;;;;;5.60;1.58;;;;;;;;;;5073252;28;20311;-66
2023/02/05 09:48:48;;;;;;;4.90;1.20;;;;;;;;;;5093700;28;20027;-67
2023/02/05 09:51:14;;;;;;;4.30;1.20;;;;;;;;;;5094158;28;20020;-65
2023/02/05 09:53:41;;;;;;;5.07;1.40;;;;;;;;;;5096318;28;20023;-66
2023/02/05 09:56:08;;;;;;;4.65;1.40;;;;;;;;;;5096482;28;20079;-64
2023/02/05 09:58:38;;;;;;;6.13;1.20;;;;;;;;;;5093339;28;20089;-66
2023/02/05 10:01:13;;;;;;;4.82;1.30;;;;;;;;;;5093377;28;20077;-65
2023/02/05 10:03:55;;;;;;;4.18;1.40;;;;;;;;;;5094032;28;20020;-66
2023/02/05 10:06:34;;;;;;;4.63;1.30;;;;;;;;;;5094106;28;20488;-65
2023/02/05 10:09:03;;;;;;;4.45;1.15;;;;;;;;;;5092510;28;20028;-64
2023/02/05 10:11:38;;;;;;;6.88;1.67;;;;;;;;;;5093168;28;20112;-67
2023/02/05 10:14:10;;;;;;;5.43;1.30;;;;;;;;;;5093263;28;20024;-66
2023/02/05 10:16:54;;;;;;;5.18;1.50;;;;;;;;;;5093896;28;20021;-64
2023/02/05 10:19:33;;;;;;;5.88;1.52;;;;;;;;;;5093303;28;20415;-65
2023/02/05 10:22:13;;;;;;;4.88;1.35;;;;;;;;;;5093701;28;20032;-67
2023/02/05 10:24:53;;;;;;;6.43;1.40;;;;;;;;;;5093891;28;20147;-66
2023/02/05 10:27:22;;;;;;;5.47;1.20;;;;;;;;;;5093228;28;20382;-65
2023/02/05 10:29:47;;;;;;;6.90;1.38;;;;;;;;;;5092948;28;20013;-66
2023/02/05 10:32:21;;;;;;;4.43;1.10;;;;;;;;;;5093396;28;20587;-65
2023/02/05 10:35:01;;;;;;;3.85;1.25;;;;;;;;;;5093423;28;20477;-65
2023/02/05 10:37:32;;;;;;;3.80;1.15;;;;;;;;;;5086431;28;20071;-65
2023/02/05 10:39:58;;;;;;;5.38;1.30;;;;;;;;;;5085387;28;20023;-68
2023/02/05 10:42:32;;;;;;;5.72;1.27;;;;;;;;;;5093298;28;20394;-66
2023/02/05 10:45:17;;;;;;;5.90;1.60;;;;;;;;;;5092993;28;20036;-71
2023/02/05 10:47:55;;;;;;;3.67;1.10;;;;;;;;;;5078589;28;20036;-66
2023/02/05 10:50:29;;;;;;;5.88;1.25;;;;;;;;;;5084600;28;20151;-64
2023/02/05 10:52:55;;;;;;;4.25;1.15;;;;;;;;;;5073103;28;20016;-65
2023/02/05 10:55:20;;;;;;;4.75;1.30;;;;;;;;;;5083884;28;20492;-66
2023/02/05 10:57:45;;;;;;;4.73;1.20;;;;;;;;;;5093258;28;20024;-66
2023/02/05 11:00:15;;;;;;;5.33;1.20;;;;;;;;;;5077461;28;20021;-66
2023/02/05 11:02:41;;;;;;;4.43;1.15;;;;;;;;;;5072560;28;20040;-67
2023/02/05 11:05:33;;;;;;;5.68;1.60;;;;;;;;;;5075960;28;20023;-66
2023/02/05 11:07:58;;;;;;;4.18;1.13;;;;;;;;;;5079438;28;20050;-65
2023/02/05 11:10:24;;;;;;;5.73;1.40;;;;;;;;;;5091094;28;20575;-64
2023/02/05 11:12:52;;;;;;;4.13;0.88;;;;;;;;;;5087497;28;20024;-66
2023/02/05 11:15:24;;;;;;;3.42;0.95;;;;;;;;;;5072023;28;20025;-65
2023/02/05 11:17:53;;;;;;;5.22;1.30;;;;;;;;;;5075974;28;20412;-65
2023/02/05 11:20:18;;;;;;;4.68;1.20;;;;;;;;;;5073411;28;20024;-66
2023/02/05 11:22:45;;;;;;;6.28;1.30;;;;;;;;;;5092463;28;20290;-65
2023/02/05 11:25:16;;;;;;;6.53;1.20;;;;;;;;;;5075869;28;20020;-65
2023/02/05 11:28:02;;;;;;;2.95;0.90;;;;;;;;;;5073876;28;20036;-65
2023/02/05 11:30:37;;;;;;;5.22;1.00;;;;;;;;;;5087414;28;20066;-65
2023/02/05 11:33:20;;;;;;;4.32;0.98;;;;;;;;;;5102630;28;20465;-66
2023/02/05 11:35:51;;;;;;;5.03;1.65;;;;;;;;;;5087649;28;20151;-66
2023/02/05 11:38:26;;;;;;;3.83;0.90;;;;;;;;;;5084022;28;20023;-67
2023/02/05 11:40:51;;;;;;;3.65;1.10;;;;;;;;;;5083072;28;20032;-65
2023/02/05 11:43:21;;;;;;;5.05;1.20;;;;;;;;;;5080903;28;20106;-65
2023/02/05 11:45:47;;;;;;;4.13;1.25;;;;;;;;;;5084162;28;20030;-65
2023/02/05 11:48:31;;;;;;;4.20;1.10;;;;;;;;;;5103983;28;20061;-65
2023/02/05 11:50:57;;;;;;;4.28;1.20;;;;;;;;;;5078304;28;20020;-64
2023/02/05 11:53:23;;;;;;;4.18;1.40;;;;;;;;;;5089702;28;20026;-65
2023/02/05 11:55:56;;;;;;;6.32;1.35;;;;;;;;;;5107810;28;20020;-65
2023/02/05 11:58:21;;;;;;;;;;;;;;;;;;5112082;28;20047;-66
2023/02/05 12:00:56;;;;;;;5.97;1.58;;;;;;;;;;5111626;28;19950;-66
2023/02/05 12:03:22;;;;;;;4.32;1.45;;;;;;;;;;5088619;28;20016;-68
2023/02/05 12:05:52;;;;;;;5.15;1.20;;;;;;;;;;5082078;28;20029;-67
2023/02/05 12:08:29;;;;;;;3.95;1.08;;;;;;;;;;5083128;28;20020;-66
2023/02/05 12:11:01;;;;;;;6.07;1.30;;;;;;;;;;5094583;28;20054;-67
2023/02/05 12:13:45;;;;;;;4.38;1.30;;;;;;;;;;5086618;28;20029;-67
2023/02/05 12:16:20;;;;;;;5.07;1.33;;;;;;;;;;5087855;28;20012;-66
2023/02/05 12:19:06;;;;;;;4.53;0.90;;;;;;;;;;5087316;28;20035;-64
2023/02/05 12:21:46;;;;;;;4.85;1.30;;;;;;;;;;5067995;28;20820;-66
2023/02/05 12:24:17;;;;;;;5.30;1.38;;;;;;;;;;5068100;28;20028;-67
2023/02/05 12:26:43;;;;;;;5.43;1.70;;;;;;;;;;5074690;28;20032;-66
2023/02/05 12:29:18;;;;;;;4.38;1.27;;;;;;;;;;5074537;28;20029;-67
2023/02/05 12:31:43;;;;;;;6.25;1.40;;;;;;;;;;5069478;28;20110;-65
2023/02/05 12:34:11;;;;;;;6.90;1.30;;;;;;;;;;5079490;28;20064;-66
2023/02/05 12:36:39;;;;;;;5.82;1.13;;;;;;;;;;5088341;28;20016;-65
2023/02/05 12:39:22;;;;;;;6.15;1.20;;;;;;;;;;5086419;28;20036;-66
2023/02/05 12:41:52;;;;;;;4.72;1.15;;;;;;;;;;5087939;28;20050;-66
2023/02/05 12:44:29;;;;;;;2.97;0.88;;;;;;;;;;5074211;28;20017;-66
2023/02/05 12:47:03;;;;;;;3.80;1.00;;;;;;;;;;5067705;28;20034;-66
2023/02/05 12:49:31;;;;;;;3.28;0.98;;;;;;;;;;5067321;28;20082;-67
2023/02/05 12:52:13;;;;;;;4.75;1.08;;;;;;;;;;5074311;28;20604;-65
2023/02/05 12:54:48;;;;;;;3.83;1.13;;;;;;;;;;5067930;28;20242;-66
2023/02/05 12:57:14;;;;;;;2.92;0.80;;;;;;;;;;5067700;28;20016;-64
2023/02/05 12:59:42;;;;;;;2.85;0.80;;;;;;;;;;5085200;28;20023;-66
2023/02/05 13:02:13;;;;;;;4.65;0.93;;;;;;;;;;5068978;28;20025;-64
2023/02/05 13:04:41;;;;;;;3.90;1.00;;;;;;;;;;5067295;28;20032;-65
2023/02/05 13:07:17;;;;;;;3.03;0.80;;;;;;;;;;5069748;28;20093;-65
2023/02/05 13:09:44;;;;;;;3.50;0.80;;;;;;;;;;5081861;28;20024;-64
2023/02/05 13:12:11;;;;;;;3.63;1.02;;;;;;;;;;5069390;28;20028;-64
2023/02/05 13:14:39;;;;;;;3.40;0.90;;;;;;;;;;5071971;28;20034;-65
2023/02/05 13:17:10;;;;;;;3.85;1.02;;;;;;;;;;5078961;28;20027;-66
2023/02/05 13:19:39;;;;;;;4.32;1.00;;;;;;;;;;5093351;28;20043;-64
2023/02/05 13:30:38;;;;;;;3.92;1.00;;;;;;;;;;5081561;28;20103;-66
2023/02/05 13:33:05;;;;;;;4.35;1.00;;;;;;;;;;5082245;28;20021;-64
2023/02/05 13:35:32;;;;;;;3.65;1.17;;;;;;;;;;5091432;28;20016;-64
2023/02/05 13:38:09;;;;;;;4.18;1.02;;;;;;;;;;5094651;28;20110;-64
2023/02/05 13:40:55;;;;;;;5.93;1.00;;;;;;;;;;5094047;28;20024;-64
2023/02/05 13:43:37;;;;;;;4.20;1.10;;;;;;;;;;5095255;28;20429;-63
2023/02/05 13:46:07;;;;;;;3.97;1.13;;;;;;;;;;5094526;28;20040;-65
2023/02/05 13:48:47;;;;;;;5.07;1.48;;;;;;;;;;5094666;28;20016;-63
2023/02/05 13:51:20;;;;;;;3.60;0.85;;;;;;;;;;5093998;28;20134;-64
2023/02/05 13:54:09;;;;;;;4.78;1.20;;;;;;;;;;5095175;28;20016;-63
2023/02/05 13:56:37;;;;;;;4.28;1.00;;;;;;;;;;5091072;28;20074;-66
2023/02/05 13:59:15;;;;;;;3.53;1.00;;;;;;;;;;5094354;28;20426;-66
2023/02/05 14:01:49;;;;;;;4.10;1.00;;;;;;;;;;5093661;28;20020;-65
2023/02/05 14:04:33;;;;;;;3.13;0.90;;;;;;;;;;5093958;28;20036;-64
2023/02/05 14:07:00;;;;;;;3.55;0.90;;;;;;;;;;5094184;28;20051;-65
2023/02/05 14:09:28;;;;;;;4.32;0.95;;;;;;;;;;5091329;28;20380;-68
2023/02/05 14:11:56;;;;;;;4.22;1.00;;;;;;;;;;5094980;28;20085;-66
2023/02/05 14:14:24;;;;;;;7.15;1.30;;;;;;;;;;5093033;28;20543;-66
2023/02/05 14:16:50;;;;;;;4.13;1.15;;;;;;;;;;5093815;28;20427;-64
2023/02/05 14:19:24;;;;;;;4.40;1.02;;;;;;;;;;5094616;28;20095;-64
2023/02/05 14:22:09;;;;;;;3.33;1.10;;;;;;;;;;5093648;28;20024;-64
2023/02/05 14:24:48;;;;;;;4.22;1.30;;;;;;;;;;5093584;28;20028;-65
2023/02/05 14:27:19;;;;;;;3.60;0.90;;;;;;;;;;5073080;28;20032;-64
2023/02/05 14:29:45;;;;;;;3.83;1.10;;;;;;;;;;5072307;28;20060;-65
2023/02/05 14:32:11;;;;;;;5.03;1.17;;;;;;;;;;5072281;28;20020;-63
2023/02/05 14:34:36;;;;;;;3.75;1.00;;;;;;;;;;5073055;28;20031;-67
2023/02/05 14:37:02;;;;;;;4.57;1.42;;;;;;;;;;5073512;28;20004;-68
2023/02/05 14:39:31;;;;;;;4.97;1.08;;;;;;;;;;5072099;28;20379;-65
2023/02/05 14:41:59;;;;;;;4.85;1.40;;;;;;;;;;5072702;28;20033;-68
2023/02/05 14:44:29;;;;;;;4.25;1.17;;;;;;;;;;5072872;28;20028;-66
2023/02/05 14:47:02;;;;;;;3.03;0.90;;;;;;;;;;5072562;28;20849;-66
2023/02/05 14:49:33;;;;;;;4.53;1.10;;;;;;;;;;5072446;28;20028;-63
2023/02/05 14:51:59;;;;;;;3.90;1.27;;;;;;;;;;5072308;28;20082;-65
2023/02/05 14:54:26;;;;;;;4.45;1.10;;;;;;;;;;5072824;28;20040;-65
2023/02/05 14:56:53;;;;;;;3.10;1.00;;;;;;;;;;5073196;28;20420;-66
2023/02/05 14:59:29;;;;;;;4.68;1.38;;;;;;;;;;5075097;28;20027;-64
2023/02/05 15:01:58;;;;;;;4.65;1.30;;;;;;;;;;5073466;28;20071;-63
2023/02/05 15:04:28;;;;;;;4.45;1.10;;;;;;;;;;5072233;28;20401;-65